Time;durP1;ratioP1;P1;durP2;ratioP2;P2;SDS_P1;SDS_P2;PMS_P1;PMS_P2;Temp;Humidity;BMP_temperature;BMP_pressure;BME280_temperature;BME280_humidity;BME280_pressure;Samples;Min_cycle;Max_cycle;Signal;HPM_P1;HPM_P2
2022/10/11 00:00:29;;;;;;;65.90;62.33;;;14.40;99.90;;;;;;5033892;28;20215;-79
2022/10/11 00:02:56;;;;;;;69.87;65.73;;;14.40;99.90;;;;;;5033251;28;20239;-79
2022/10/11 00:05:22;;;;;;;60.43;56.87;;;14.40;99.90;;;;;;5034892;28;20193;-79
2022/10/11 00:07:48;;;;;;;46.57;43.70;;;14.40;99.90;;;;;;5033791;28;20179;-79
2022/10/11 00:10:14;;;;;;;42.80;39.90;;;14.30;99.90;;;;;;5052185;28;20234;-80
2022/10/11 00:12:41;;;;;;;61.17;57.83;;;14.20;99.90;;;;;;5039147;28;20198;-78
2022/10/11 00:15:07;;;;;;;80.47;75.73;;;14.20;99.90;;;;;;5031582;28;20190;-78
2022/10/11 00:17:34;;;;;;;57.63;54.37;;;14.10;99.90;;;;;;5032434;28;20669;-79
2022/10/11 00:20:00;;;;;;;55.73;52.37;;;14.00;99.90;;;;;;5032520;28;20187;-78
2022/10/11 00:22:25;;;;;;;49.07;46.20;;;13.90;99.90;;;;;;5032810;28;20865;-78
2022/10/11 00:24:51;;;;;;;49.53;46.33;;;13.90;99.90;;;;;;5032350;28;20206;-78
2022/10/11 00:27:18;;;;;;;62.47;58.73;;;13.80;99.90;;;;;;5033825;28;20277;-79
2022/10/11 00:29:44;;;;;;;76.97;72.53;;;13.70;99.90;;;;;;5032742;28;20247;-78
2022/10/11 00:32:10;;;;;;;81.80;77.00;;;13.60;99.90;;;;;;5031922;28;20206;-78
2022/10/11 00:34:36;;;;;;;99.63;93.87;;;13.60;99.90;;;;;;5031782;28;20267;-78
2022/10/11 00:37:02;;;;;;;70.00;66.17;;;13.50;99.90;;;;;;5032214;28;20206;-79
2022/10/11 00:39:27;;;;;;;27.60;25.73;;;13.40;99.90;;;;;;5037048;28;20260;-79
2022/10/11 00:41:53;;;;;;;15.37;14.27;;;13.40;99.90;;;;;;5038095;28;20203;-80
2022/10/11 00:44:22;;;;;;;14.37;13.13;;;13.30;99.90;;;;;;5037277;28;20263;-78
2022/10/11 00:47:05;;;;;;;16.73;15.37;;;13.20;99.90;;;;;;5033930;28;20181;-79
2022/10/11 00:49:59;;;;;;;18.17;16.93;;;13.10;99.90;;;;;;5036577;28;20800;-79
2022/10/11 00:52:33;;;;;;;15.30;13.83;;;13.10;99.90;;;;;;5030136;28;20634;-79
2022/10/11 00:55:04;;;;;;;29.07;27.10;;;13.00;99.90;;;;;;5034290;28;20182;-79
2022/10/11 00:57:33;;;;;;;25.87;23.07;;;13.00;99.90;;;;;;5032957;28;20317;-78
2022/10/11 01:00:00;;;;;;;39.83;37.43;;;12.90;99.90;;;;;;5038434;28;20179;-79
2022/10/11 01:02:26;;;;;;;29.67;27.00;;;12.80;99.90;;;;;;5032365;28;20210;-79
2022/10/11 01:04:52;;;;;;;39.43;36.67;;;12.80;99.90;;;;;;5042891;28;20191;-78
2022/10/11 01:07:19;;;;;;;24.57;23.13;;;12.80;99.90;;;;;;5036249;28;20676;-78
2022/10/11 01:09:45;;;;;;;31.40;29.30;;;12.70;99.90;;;;;;5030561;28;20207;-78
2022/10/11 01:12:20;;;;;;;24.77;23.10;;;12.70;99.90;;;;;;5032337;28;20306;-78
2022/10/11 01:15:04;;;;;;;20.47;19.23;;;12.70;99.90;;;;;;5033034;28;20182;-79
2022/10/11 01:17:33;;;;;;;17.87;16.47;;;12.60;99.90;;;;;;5032112;28;20254;-80
2022/10/11 01:20:20;;;;;;;17.70;16.67;;;12.60;99.90;;;;;;5035689;28;20189;-78
2022/10/11 01:23:04;;;;;;;20.43;18.93;;;12.50;99.90;;;;;;5035663;28;20230;-79
2022/10/11 01:25:52;;;;;;;33.10;30.93;;;12.50;99.90;;;;;;5036344;28;20194;-79
2022/10/11 01:28:49;;;;;;;49.67;46.97;;;12.50;99.90;;;;;;5038791;28;20179;-80
2022/10/11 01:31:38;;;;;;;52.87;49.50;;;12.50;99.90;;;;;;5037509;28;20242;-80
2022/10/11 01:34:17;;;;;;;59.40;56.27;;;12.50;99.90;;;;;;5038619;28;20197;-79
2022/10/11 01:36:56;;;;;;;45.97;42.77;;;12.50;99.90;;;;;;5036947;28;20179;-80
2022/10/11 01:39:27;;;;;;;24.70;23.13;;;12.50;99.90;;;;;;5038518;28;20242;-80
2022/10/11 01:41:56;;;;;;;18.10;16.50;;;12.60;99.90;;;;;;5035043;28;20321;-79
2022/10/11 01:44:24;;;;;;;12.00;10.93;;;12.60;99.90;;;;;;5035835;28;20190;-79
2022/10/11 01:46:53;;;;;;;27.33;17.97;;;12.70;99.90;;;;;;5036063;28;20248;-80
2022/10/11 01:49:19;;;;;;;28.73;21.00;;;12.70;99.90;;;;;;5047885;28;20179;-80
2022/10/11 01:51:49;;;;;;;39.20;32.00;;;12.80;99.90;;;;;;5054144;28;20224;-79
2022/10/11 01:54:50;;;;;;;31.53;28.93;;;12.90;99.90;;;;;;5054402;28;20196;-80
2022/10/11 01:57:47;;;;;;;27.27;25.37;;;12.90;99.90;;;;;;4934272;29;20188;-79
2022/10/11 02:00:19;;;;;;;27.80;24.33;;;13.00;99.90;;;;;;5035025;28;20202;-79
2022/10/11 02:03:26;;;;;;;25.60;22.90;;;13.00;99.90;;;;;;5041034;28;20213;-79
2022/10/11 02:06:13;;;;;;;30.53;27.73;;;13.00;99.90;;;;;;5035935;28;20196;-80
2022/10/11 02:08:42;;;;;;;26.13;23.80;;;13.00;99.90;;;;;;5035034;28;20248;-79
2022/10/11 02:11:19;;;;;;;27.93;24.97;;;13.10;99.90;;;;;;5036874;28;20210;-80
2022/10/11 02:14:09;;;;;;;29.07;26.73;;;13.10;99.90;;;;;;5036430;28;20189;-79
2022/10/11 02:16:45;;;;;;;29.30;26.83;;;13.20;99.90;;;;;;5050984;28;20200;-79
2022/10/11 02:19:17;;;;;;;50.77;23.80;;;13.20;99.90;;;;;;5034038;28;20648;-79
2022/10/11 02:21:46;;;;;;;42.53;24.93;;;13.30;99.90;;;;;;5034668;28;20207;-79
2022/10/11 02:24:17;;;;;;;32.33;25.27;;;13.20;99.90;;;;;;5035039;28;20183;-78
2022/10/11 02:26:51;;;;;;;45.40;18.93;;;13.20;99.90;;;;;;5035160;28;20207;-78
2022/10/11 02:29:19;;;;;;;39.23;17.53;;;13.20;99.90;;;;;;5034747;28;20199;-78
2022/10/11 02:31:45;;;;;;;63.77;18.67;;;13.20;99.90;;;;;;5034371;28;20309;-79
2022/10/11 02:34:30;;;;;;;48.27;17.67;;;13.20;99.90;;;;;;5043711;28;20698;-77
2022/10/11 02:37:14;;;;;;;48.30;13.57;;;13.20;99.90;;;;;;5041346;28;20182;-78
2022/10/11 02:39:56;;;;;;;48.43;27.00;;;13.20;99.90;;;;;;5035070;28;20639;-79
2022/10/11 02:42:35;;;;;;;66.20;27.57;;;13.20;99.90;;;;;;5035509;28;20195;-79
2022/10/11 02:45:12;;;;;;;50.37;28.93;;;13.20;99.90;;;;;;5035418;28;20237;-79
2022/10/11 02:47:39;;;;;;;102.13;35.43;;;13.20;99.90;;;;;;5036027;28;20187;-79
2022/10/11 02:50:05;;;;;;;62.70;38.07;;;13.20;99.90;;;;;;5039332;28;20278;-78
2022/10/11 02:52:31;;;;;;;71.37;33.20;;;13.20;99.90;;;;;;5057747;22;20281;-74
2022/10/11 02:54:57;;;;;;;49.17;28.50;;;13.20;99.90;;;;;;5032328;28;20651;-73
2022/10/11 02:57:23;;;;;;;64.47;25.93;;;13.20;99.90;;;;;;5032054;28;20175;-73
2022/10/11 02:59:48;;;;;;;42.53;17.00;;;13.20;99.90;;;;;;5032589;28;20667;-75
2022/10/11 03:02:14;;;;;;;88.37;19.17;;;13.20;99.90;;;;;;5032160;28;20205;-74
2022/10/11 03:04:40;;;;;;;64.00;20.00;;;13.20;99.90;;;;;;5031806;28;20666;-74
2022/10/11 03:07:05;;;;;;;67.20;22.10;;;13.20;99.90;;;;;;5031118;28;20194;-75
2022/10/11 03:09:31;;;;;;;55.40;20.47;;;13.20;99.90;;;;;;5033563;28;20179;-76
2022/10/11 03:11:57;;;;;;;80.80;23.60;;;13.30;99.90;;;;;;5032366;28;20181;-75
2022/10/11 03:14:23;;;;;;;57.93;23.73;;;13.30;99.90;;;;;;5030860;28;20555;-75
2022/10/11 03:16:49;;;;;;;93.50;27.53;;;13.20;99.90;;;;;;5031701;28;20186;-75
2022/10/11 03:19:15;;;;;;;42.53;26.13;;;13.20;99.90;;;;;;5031302;28;20270;-74
2022/10/11 03:21:40;;;;;;;51.90;24.60;;;13.30;99.90;;;;;;5031729;28;20264;-75
2022/10/11 03:24:06;;;;;;;37.00;27.23;;;13.20;99.90;;;;;;5030667;28;20220;-75
2022/10/11 03:26:32;;;;;;;34.57;31.07;;;13.30;99.90;;;;;;5031846;28;20193;-76
2022/10/11 03:28:58;;;;;;;35.50;30.93;;;13.30;99.90;;;;;;5030303;28;20175;-75
2022/10/11 03:31:24;;;;;;;43.03;34.33;;;13.30;99.90;;;;;;5031775;28;20217;-76
2022/10/11 03:33:50;;;;;;;37.13;34.20;;;13.40;99.90;;;;;;5031242;28;20195;-75
2022/10/11 03:36:16;;;;;;;23.47;13.77;;;13.30;99.90;;;;;;5030396;28;20179;-75
2022/10/11 03:38:42;;;;;;;29.90;21.20;;;13.30;99.90;;;;;;5029983;28;20556;-75
2022/10/11 03:41:07;;;;;;;36.00;33.00;;;13.30;99.90;;;;;;5031383;28;20246;-76
2022/10/11 03:43:33;;;;;;;79.17;74.13;;;13.40;99.90;;;;;;5031408;28;20195;-75
2022/10/11 03:45:59;;;;;;;75.10;70.17;;;13.40;99.90;;;;;;5031552;28;20274;-73
2022/10/11 03:48:25;;;;;;;70.30;65.90;;;13.50;99.90;;;;;;5029351;28;20179;-75
2022/10/11 03:50:51;;;;;;;56.50;52.57;;;13.50;99.90;;;;;;5031300;28;20655;-76
2022/10/11 03:53:17;;;;;;;23.67;21.67;;;13.50;99.90;;;;;;5029374;28;20214;-75
2022/10/11 03:55:43;;;;;;;15.63;14.00;;;13.50;99.90;;;;;;5031239;28;20179;-75
2022/10/11 03:58:09;;;;;;;13.57;11.27;;;13.50;99.90;;;;;;5029705;28;20183;-76
2022/10/11 04:00:35;;;;;;;13.87;12.43;;;13.60;99.90;;;;;;5030887;28;20210;-76
2022/10/11 04:03:04;;;;;;;21.37;19.33;;;13.60;99.90;;;;;;5030848;28;20211;-75
2022/10/11 04:05:30;;;;;;;36.87;34.10;;;13.60;99.90;;;;;;5029860;28;20190;-75
2022/10/11 04:07:56;;;;;;;22.80;21.00;;;13.60;99.90;;;;;;5030514;28;20667;-75
2022/10/11 04:10:22;;;;;;;30.73;28.40;;;13.60;99.90;;;;;;5031121;28;20297;-75
2022/10/11 04:12:48;;;;;;;22.77;20.77;;;13.60;99.90;;;;;;5031313;28;20214;-76
2022/10/11 04:15:14;;;;;;;20.00;18.10;;;13.70;99.90;;;;;;5031129;28;20277;-76
2022/10/11 04:17:40;;;;;;;25.67;23.63;;;13.70;99.90;;;;;;5029102;28;20560;-75
2022/10/11 04:20:07;;;;;;;20.33;18.40;;;13.70;99.90;;;;;;5029876;28;20641;-76
2022/10/11 04:22:33;;;;;;;20.03;18.23;;;13.70;99.90;;;;;;5030865;28;20621;-75
2022/10/11 04:24:59;;;;;;;35.27;32.17;;;13.70;99.90;;;;;;5030024;28;20635;-76
2022/10/11 04:27:28;;;;;;;63.97;59.77;;;13.70;99.90;;;;;;5030806;28;20259;-74
2022/10/11 04:29:55;;;;;;;89.33;83.83;;;13.70;99.90;;;;;;5030154;28;20203;-74
2022/10/11 04:32:21;;;;;;;167.43;157.37;;;13.70;99.90;;;;;;5030477;28;20199;-74
2022/10/11 04:34:46;;;;;;;190.17;179.17;;;13.70;99.90;;;;;;5030505;28;20551;-75
2022/10/11 04:37:12;;;;;;;225.90;212.80;;;13.70;99.90;;;;;;5030222;28;20648;-74
2022/10/11 04:39:38;;;;;;;256.93;242.17;;;13.70;99.90;;;;;;5030123;28;20225;-74
2022/10/11 04:42:04;;;;;;;271.03;255.47;;;13.70;99.90;;;;;;5030308;28;20183;-75
2022/10/11 04:44:31;;;;;;;216.07;203.77;;;13.70;99.90;;;;;;5028676;28;20257;-74
2022/10/11 04:46:56;;;;;;;213.93;201.47;;;13.70;99.90;;;;;;5030198;28;20201;-75
2022/10/11 04:49:23;;;;;;;235.17;221.57;;;13.70;99.90;;;;;;5030252;28;20218;-74
2022/10/11 04:51:49;;;;;;;263.87;248.57;;;13.70;99.90;;;;;;5030231;28;20221;-75
2022/10/11 04:54:15;;;;;;;267.13;251.57;;;13.80;99.90;;;;;;5029565;28;20647;-75
2022/10/11 04:56:41;;;;;;;257.67;242.70;;;13.80;99.90;;;;;;5030622;28;20206;-75
2022/10/11 04:59:06;;;;;;;250.40;236.17;;;13.80;99.90;;;;;;5030127;28;20183;-74
2022/10/11 05:01:33;;;;;;;252.13;237.30;;;13.80;99.90;;;;;;5028466;28;20214;-74
2022/10/11 05:03:59;;;;;;;246.73;232.37;;;13.80;99.90;;;;;;5029905;28;20571;-74
2022/10/11 05:06:24;;;;;;;269.63;254.17;;;13.80;99.90;;;;;;5028082;28;20548;-74
2022/10/11 05:08:50;;;;;;;247.13;232.17;;;13.80;99.90;;;;;;5029848;28;20179;-75
2022/10/11 05:11:17;;;;;;;280.13;263.40;;;13.80;99.90;;;;;;5030403;28;20175;-75
2022/10/11 05:13:44;;;;;;;249.10;234.47;;;13.80;99.90;;;;;;5029540;28;20290;-76
2022/10/11 05:16:10;;;;;;;289.33;272.67;;;13.90;99.90;;;;;;5029852;28;20288;-75
2022/10/11 05:18:36;;;;;;;251.97;237.73;;;13.80;99.90;;;;;;5028183;28;20183;-75
2022/10/11 05:21:13;;;;;;;237.83;224.43;;;13.90;99.90;;;;;;5030263;28;20349;-75
2022/10/11 05:23:39;;;;;;;237.70;224.07;;;13.90;99.90;;;;;;5028832;28;20237;-74
2022/10/11 05:26:05;;;;;;;260.70;245.50;;;13.90;99.90;;;;;;5026212;28;20183;-75
2022/10/11 05:28:31;;;;;;;236.23;222.83;;;13.90;99.90;;;;;;5029238;28;20178;-75
2022/10/11 05:30:57;;;;;;;196.90;185.53;;;13.90;99.90;;;;;;5029542;28;20183;-74
2022/10/11 05:33:23;;;;;;;169.30;159.50;;;13.90;99.90;;;;;;5029502;28;20667;-76
2022/10/11 05:35:50;;;;;;;211.30;198.40;;;13.90;99.90;;;;;;5028174;28;20187;-74
2022/10/11 05:38:16;;;;;;;193.77;182.67;;;13.90;99.90;;;;;;5027463;28;20608;-74
2022/10/11 05:40:42;;;;;;;199.43;187.63;;;13.90;99.90;;;;;;5028828;28;20321;-71
2022/10/11 05:43:08;;;;;;;200.83;189.10;;;14.00;99.90;;;;;;5013964;28;20249;-71
2022/10/11 05:45:37;;;;;;;206.23;194.33;;;14.00;99.90;;;;;;5009833;28;20254;-71
2022/10/11 05:48:03;;;;;;;207.80;196.17;;;14.00;99.90;;;;;;5018823;28;20270;-70
2022/10/11 05:50:29;;;;;;;109.30;102.47;;;14.00;99.90;;;;;;5029078;28;20262;-70
2022/10/11 05:52:55;;;;;;;118.60;111.40;;;14.00;99.90;;;;;;5027465;28;20309;-71
2022/10/11 05:55:21;;;;;;;86.80;80.97;;;14.00;99.90;;;;;;5027987;28;20182;-70
2022/10/11 05:57:46;;;;;;;49.13;45.57;;;13.90;99.90;;;;;;5028655;28;20183;-70
2022/10/11 06:00:13;;;;;;;34.03;31.30;;;13.90;99.90;;;;;;5029242;28;20302;-71
2022/10/11 06:02:38;;;;;;;58.10;54.20;;;14.00;99.90;;;;;;5029146;28;20207;-71
2022/10/11 06:05:04;;;;;;;157.77;148.10;;;14.00;99.90;;;;;;5027681;28;20183;-71
2022/10/11 06:07:31;;;;;;;248.63;234.33;;;14.00;99.90;;;;;;5028219;28;20266;-71
2022/10/11 06:09:57;;;;;;;317.10;298.40;;;14.10;99.90;;;;;;5028900;28;20249;-71
2022/10/11 06:12:23;;;;;;;242.17;228.33;;;14.10;99.90;;;;;;5027434;28;20293;-71
2022/10/11 06:14:49;;;;;;;154.77;144.90;;;14.10;99.90;;;;;;5029139;28;20190;-72
2022/10/11 06:17:14;;;;;;;97.93;92.10;;;14.20;99.90;;;;;;5030812;28;20201;-72
2022/10/11 06:19:40;;;;;;;91.13;85.30;;;14.20;99.90;;;;;;5031070;28;20191;-72
2022/10/11 06:22:06;;;;;;;132.03;123.53;;;14.20;99.90;;;;;;5028848;28;20190;-71
2022/10/11 06:24:32;;;;;;;184.20;172.83;;;14.20;99.90;;;;;;5026855;28;20176;-71
2022/10/11 06:26:57;;;;;;;215.20;201.87;;;14.30;99.90;;;;;;5026964;28;20176;-72
2022/10/11 06:29:23;;;;;;;210.30;198.10;;;14.30;99.90;;;;;;5014915;28;20580;-72
2022/10/11 06:31:49;;;;;;;200.10;188.63;;;14.30;99.90;;;;;;5014323;28;20625;-73
2022/10/11 06:34:15;;;;;;;187.77;176.63;;;14.30;99.90;;;;;;5011868;28;20195;-72
2022/10/11 06:36:41;;;;;;;135.10;126.37;;;14.30;99.90;;;;;;5012754;28;20214;-72
2022/10/11 06:39:07;;;;;;;109.23;101.90;;;14.30;99.90;;;;;;5022319;28;20542;-72
2022/10/11 06:41:32;;;;;;;94.40;88.10;;;14.30;99.90;;;;;;5032388;28;20257;-72
2022/10/11 06:43:58;;;;;;;78.37;72.87;;;14.30;99.90;;;;;;5031998;28;20201;-71
2022/10/11 06:46:26;;;;;;;95.47;89.53;;;14.40;99.90;;;;;;5032441;28;20225;-71
2022/10/11 06:48:52;;;;;;;103.30;96.20;;;14.40;99.90;;;;;;5031958;28;20175;-71
2022/10/11 06:51:20;;;;;;;84.40;79.00;;;14.40;99.90;;;;;;5032067;28;20179;-72
2022/10/11 06:53:51;;;;;;;94.43;88.33;;;14.50;99.90;;;;;;5031948;28;20214;-71
2022/10/11 06:56:17;;;;;;;78.87;73.67;;;14.50;99.90;;;;;;5045034;28;20563;-72
2022/10/11 06:58:42;;;;;;;86.57;80.87;;;14.50;99.90;;;;;;5030741;28;20240;-71
2022/10/11 07:01:15;;;;;;;161.00;151.07;;;14.50;99.90;;;;;;5032285;28;20718;-71
2022/10/11 07:03:41;;;;;;;210.50;197.87;;;14.50;99.90;;;;;;5031959;28;20203;-72
2022/10/11 07:06:10;;;;;;;150.13;140.63;;;14.50;99.90;;;;;;5032230;28;20171;-71
2022/10/11 07:08:36;;;;;;;110.53;103.13;;;14.50;99.90;;;;;;5030643;28;20179;-73
2022/10/11 07:11:05;;;;;;;124.17;115.87;;;14.50;99.90;;;;;;5032866;28;20640;-72
2022/10/11 07:13:31;;;;;;;129.77;121.27;;;14.50;99.90;;;;;;5031831;28;20610;-71
2022/10/11 07:16:00;;;;;;;117.63;109.83;;;14.60;99.90;;;;;;5032032;28;20179;-71
2022/10/11 07:18:26;;;;;;;109.47;102.23;;;14.60;99.90;;;;;;5022975;28;20180;-71
2022/10/11 07:20:51;;;;;;;152.23;142.23;;;14.60;99.90;;;;;;5025753;28;20238;-74
2022/10/11 07:23:17;;;;;;;136.67;128.17;;;14.70;99.90;;;;;;5031184;28;20199;-75
2022/10/11 07:25:44;;;;;;;157.23;145.60;;;14.70;99.90;;;;;;5030372;28;20324;-72
2022/10/11 07:28:10;;;;;;;120.87;112.67;;;14.80;99.90;;;;;;5031091;28;20190;-74
2022/10/11 07:30:40;;;;;;;58.60;53.57;;;14.80;99.90;;;;;;5030096;28;20219;-75
2022/10/11 07:33:06;;;;;;;24.80;21.10;;;14.80;99.90;;;;;;5031029;28;20199;-76
2022/10/11 07:35:36;;;;;;;26.07;19.60;;;15.00;99.90;;;;;;5032076;28;20266;-75
2022/10/11 07:38:06;;;;;;;29.67;20.63;;;15.00;99.90;;;;;;5030691;28;20207;-76
2022/10/11 07:40:39;;;;;;;28.20;21.90;;;15.10;99.90;;;;;;5032790;28;20298;-75
2022/10/11 07:43:05;;;;;;;27.60;24.73;;;15.10;99.90;;;;;;5033384;28;20296;-76
2022/10/11 07:45:31;;;;;;;27.83;24.17;;;15.20;99.90;;;;;;5033415;28;20689;-75
2022/10/11 07:47:57;;;;;;;29.83;23.27;;;15.30;99.90;;;;;;5029997;28;20171;-76
2022/10/11 07:50:23;;;;;;;38.97;35.37;;;15.40;99.90;;;;;;5018352;28;20188;-76
2022/10/11 07:52:49;;;;;;;32.47;28.67;;;15.40;99.90;;;;;;5026831;28;20227;-75
2022/10/11 07:55:15;;;;;;;44.57;41.07;;;15.40;99.90;;;;;;5015132;28;20187;-75
2022/10/11 07:57:41;;;;;;;127.53;119.00;;;15.50;99.90;;;;;;5026328;28;20188;-75
2022/10/11 08:00:27;;;;;;;117.70;110.13;;;15.50;99.90;;;;;;5027821;28;20559;-76
2022/10/11 08:02:53;;;;;;;121.70;113.43;;;15.60;99.90;;;;;;5030477;28;20210;-76
2022/10/11 08:05:19;;;;;;;94.67;88.17;;;15.60;99.90;;;;;;5022137;28;20199;-76
2022/10/11 08:07:46;;;;;;;80.70;75.03;;;15.70;99.90;;;;;;5011545;28;20213;-76
2022/10/11 08:10:12;;;;;;;67.50;62.13;;;15.70;99.90;;;;;;5008923;28;20175;-75
2022/10/11 08:12:38;;;;;;;70.10;64.17;;;15.80;99.90;;;;;;5010395;28;20206;-75
2022/10/11 08:15:04;;;;;;;49.60;45.50;;;15.80;99.90;;;;;;5010075;28;20583;-76
2022/10/11 08:17:30;;;;;;;43.87;39.50;;;15.90;99.90;;;;;;5027084;28;20187;-76
2022/10/11 08:19:56;;;;;;;28.33;25.37;;;15.90;99.90;;;;;;5030009;28;20233;-74
2022/10/11 08:22:23;;;;;;;30.97;21.03;;;15.90;99.90;;;;;;5029860;28;20264;-75
2022/10/11 08:24:48;;;;;;;32.73;25.40;;;16.00;99.90;;;;;;5029489;28;20171;-74
2022/10/11 08:27:16;;;;;;;52.93;48.57;;;16.00;99.90;;;;;;5030940;28;20555;-76
2022/10/11 08:29:42;;;;;;;80.43;74.53;;;16.10;99.90;;;;;;5030873;28;20186;-75
2022/10/11 08:32:10;;;;;;;101.63;94.20;;;16.20;99.90;;;;;;5031611;28;20183;-77
2022/10/11 08:34:36;;;;;;;93.07;85.73;;;16.20;99.90;;;;;;5032555;28;20654;-77
2022/10/11 08:37:03;;;;;;;103.27;96.10;;;16.10;99.90;;;;;;5032094;28;20210;-78
2022/10/11 08:39:28;;;;;;;107.70;99.53;;;16.10;99.90;;;;;;5032980;28;20209;-78
2022/10/11 08:42:03;;;;;;;106.63;98.77;;;16.00;99.90;;;;;;5036684;28;20292;-78
2022/10/11 08:44:44;;;;;;;106.10;98.40;;;16.00;99.90;;;;;;5038303;28;20183;-78
2022/10/11 08:47:18;;;;;;;104.67;97.20;;;16.10;99.90;;;;;;5033342;28;20186;-77
2022/10/11 08:49:44;;;;;;;110.60;101.90;;;16.00;99.90;;;;;;5031561;28;20183;-77
2022/10/11 08:55:42;;;;;;;87.60;80.77;;;16.20;99.90;;;;;;5042150;28;20214;-80
2022/10/11 08:58:14;;;;;;;78.27;71.40;;;16.40;99.90;;;;;;5033377;28;20256;-79
2022/10/11 09:00:41;;;;;;;53.03;48.63;;;16.50;99.90;;;;;;5037491;28;20711;-82
2022/10/11 09:03:27;;;;;;;63.90;58.60;;;16.60;99.90;;;;;;5035681;28;20229;-81
2022/10/11 09:06:33;;;;;;;137.30;128.17;;;16.70;99.90;;;;;;5033496;28;20284;-83
2022/10/11 09:09:02;;;;;;;195.83;183.80;;;16.70;99.90;;;;;;5032462;28;20194;-82
2022/10/11 09:11:30;;;;;;;123.07;114.80;;;16.90;99.90;;;;;;5032437;28;20589;-81
2022/10/11 09:14:20;;;;;;;73.07;66.87;;;16.90;99.90;;;;;;5028288;28;20211;-83
2022/10/11 09:16:57;;;;;;;44.47;40.37;;;17.00;99.90;;;;;;5028774;28;20239;-83
2022/10/11 09:19:38;;;;;;;24.10;21.53;;;17.10;99.90;;;;;;5014520;28;20223;-83
2022/10/11 09:22:14;;;;;;;30.80;24.23;;;17.20;99.90;;;;;;5031980;28;20207;-82
2022/10/11 09:25:11;;;;;;;35.63;28.63;;;17.30;99.90;;;;;;5021143;28;20202;-82
2022/10/11 09:27:44;;;;;;;32.77;29.37;;;17.50;99.90;;;;;;5032704;28;20298;-82
2022/10/11 09:30:16;;;;;;;44.53;40.50;;;17.60;99.90;;;;;;5041584;28;20183;-80
2022/10/11 09:32:51;;;;;;;60.33;54.50;;;17.60;99.90;;;;;;5038628;28;20229;-83
2022/10/11 09:35:21;;;;;;;50.00;45.83;;;17.50;99.90;;;;;;5044802;28;20190;-80
2022/10/11 09:38:13;;;;;;;36.90;33.53;;;17.60;99.90;;;;;;5030853;28;20179;-82
2022/10/11 09:41:06;;;;;;;26.40;21.43;;;17.70;99.90;;;;;;5033485;28;20211;-84
2022/10/11 09:43:32;;;;;;;28.13;18.37;;;18.00;99.90;;;;;;5032641;28;20769;-81
2022/10/11 09:45:58;;;;;;;23.40;15.07;;;18.30;99.90;;;;;;5032217;28;20175;-79
2022/10/11 09:48:38;;;;;;;35.60;32.10;;;18.70;99.90;;;;;;5038356;28;20175;-80
2022/10/11 09:51:20;;;;;;;56.23;52.00;;;18.70;99.90;;;;;;5035543;28;20274;-82
2022/10/11 09:53:57;;;;;;;64.97;59.67;;;19.00;99.90;;;;;;5042132;28;20218;-81
2022/10/11 09:56:26;;;;;;;50.93;47.17;;;19.10;99.90;;;;;;5053025;28;20183;-82
2022/10/11 09:59:28;;;;;;;41.73;38.23;;;19.30;99.90;;;;;;5052583;28;20655;-81
2022/10/11 10:02:05;;;;;;;23.17;20.77;;;19.50;99.90;;;;;;5037263;28;20813;-82
2022/10/11 10:04:31;;;;;;;22.33;16.73;;;19.50;99.90;;;;;;5042012;28;20202;-80
2022/10/11 10:07:11;;;;;;;22.93;17.80;;;19.60;99.90;;;;;;5059821;28;20210;-81
2022/10/11 10:09:37;;;;;;;19.73;17.27;;;19.80;99.90;;;;;;5045446;28;20554;-82
2022/10/11 10:12:11;;;;;;;25.00;22.60;;;20.00;99.90;;;;;;5045502;28;20202;-80
2022/10/11 10:14:37;;;;;;;30.10;27.43;;;20.00;99.90;;;;;;5051223;28;20683;-81
2022/10/11 10:17:07;;;;;;;26.77;24.33;;;19.90;99.90;;;;;;5034884;28;20193;-81
2022/10/11 10:19:47;;;;;;;27.23;24.80;;;19.80;99.90;;;;;;5036487;28;20652;-82
2022/10/11 10:22:26;;;;;;;30.53;27.73;;;19.50;99.90;;;;;;5040643;28;20384;-81
2022/10/11 10:24:53;;;;;;;31.27;28.33;;;19.30;99.90;;;;;;5039102;28;20195;-82
2022/10/11 10:27:20;;;;;;;25.20;23.13;;;19.00;99.90;;;;;;5036726;28;20233;-82
2022/10/11 10:30:06;;;;;;;28.33;25.43;;;18.90;99.90;;;;;;5037785;28;20172;-81
2022/10/11 10:32:54;;;;;;;28.50;26.13;;;18.90;99.90;;;;;;5033853;28;20215;-81
2022/10/11 10:35:40;;;;;;;23.33;21.13;;;18.90;99.90;;;;;;5049520;28;20187;-74
2022/10/11 10:38:12;;;;;;;27.97;25.20;;;18.70;99.90;;;;;;5033251;28;20183;-74
2022/10/11 10:41:08;;;;;;;26.37;24.20;;;18.70;99.90;;;;;;5034111;28;20179;-75
2022/10/11 10:43:38;;;;;;;22.90;20.57;;;18.60;99.90;;;;;;5033173;28;20687;-76
2022/10/11 10:46:43;;;;;;;21.73;19.50;;;18.60;99.90;;;;;;5032184;28;20187;-75
2022/10/11 10:49:16;;;;;;;19.00;17.30;;;18.60;99.90;;;;;;5034238;28;20221;-78
2022/10/11 10:51:48;;;;;;;22.57;20.20;;;18.70;99.90;;;;;;5024043;28;20221;-77
2022/10/11 10:54:50;;;;;;;24.83;22.40;;;18.70;99.90;;;;;;5029282;28;20207;-75
2022/10/11 10:57:21;;;;;;;20.80;18.83;;;18.50;99.90;;;;;;5042936;28;20268;-74
2022/10/11 11:00:10;;;;;;;27.67;19.53;;;18.30;99.90;;;;;;5031518;28;20182;-74
2022/10/11 11:03:01;;;;;;;20.87;18.60;;;18.20;99.90;;;;;;5031624;28;20190;-75
2022/10/11 11:05:47;;;;;;;18.90;14.53;;;18.10;99.90;;;;;;5031305;28;20605;-75
2022/10/11 11:08:54;;;;;;;16.47;13.43;;;18.00;99.90;;;;;;5031160;28;20179;-75
2022/10/11 11:11:58;;;;;;;17.37;11.97;;;18.00;99.90;;;;;;5032456;28;20199;-75
2022/10/11 11:14:29;;;;;;;14.30;11.73;;;18.10;99.90;;;;;;5009534;28;20235;-76
2022/10/11 11:17:05;;;;;;;16.47;14.93;;;18.20;99.90;;;;;;5031141;28;20179;-75
2022/10/11 11:19:49;;;;;;;15.23;13.73;;;18.10;99.90;;;;;;5030972;28;20179;-75
2022/10/11 11:22:37;;;;;;;15.07;12.73;;;18.20;99.90;;;;;;5031498;28;20179;-75
2022/10/11 11:25:36;;;;;;;17.03;15.03;;;18.40;99.90;;;;;;5032128;28;20185;-75
2022/10/11 11:28:02;;;;;;;16.17;14.43;;;18.50;99.90;;;;;;5029763;28;20183;-75
2022/10/11 11:31:12;;;;;;;21.87;17.37;;;18.60;99.90;;;;;;5030560;28;20288;-75
2022/10/11 11:33:54;;;;;;;19.73;17.70;;;18.90;99.90;;;;;;5030883;28;20774;-75
2022/10/11 11:36:31;;;;;;;21.77;19.60;;;19.40;99.90;;;;;;5029714;28;20183;-75
2022/10/11 11:39:01;;;;;;;18.17;13.70;;;19.80;99.90;;;;;;5030701;28;20179;-75
2022/10/11 11:41:41;;;;;;;16.63;12.37;;;20.30;99.90;;;;;;5032354;28;20205;-77
2022/10/11 11:44:21;;;;;;;18.55;16.20;;;20.60;99.90;;;;;;5032272;28;20203;-74
2022/10/11 11:46:56;;;;;;;29.60;18.98;;;21.10;99.90;;;;;;5031443;28;20624;-74
2022/10/11 11:49:38;;;;;;;18.30;13.02;;;21.80;99.90;;;;;;5032298;28;20213;-74
2022/10/11 11:52:06;;;;;;;26.25;23.23;;;22.50;99.90;;;;;;5042052;28;20305;-73
2022/10/11 11:54:45;;;;;;;51.83;48.33;;;22.90;99.90;;;;;;5033955;28;20234;-74
2022/10/11 11:57:36;;;;;;;71.63;66.72;;;22.50;99.90;;;;;;5030692;28;20202;-75
2022/10/11 12:00:22;;;;;;;61.63;58.03;;;22.20;99.90;;;;;;5031949;28;20182;-74
2022/10/11 12:02:54;;;;;;;56.05;52.17;;;21.70;99.90;;;;;;5033775;28;20257;-75
2022/10/11 12:05:26;;;;;;;49.80;46.20;;;21.50;99.90;;;;;;5031080;28;20226;-75
2022/10/11 12:07:52;;;;;;;60.17;55.63;;;21.20;99.90;;;;;;5029716;28;20190;-75
2022/10/11 12:10:29;;;;;;;64.43;60.30;;;20.90;99.90;;;;;;5031407;28;20272;-74
2022/10/11 12:13:19;;;;;;;67.77;63.17;;;20.50;99.90;;;;;;5031613;28;20591;-75
2022/10/11 12:15:59;;;;;;;30.43;28.17;;;20.10;99.90;;;;;;5029919;28;20225;-75
2022/10/11 12:18:25;;;;;;;14.70;11.67;;;19.60;99.90;;;;;;5029156;28;20237;-76
2022/10/11 12:21:20;;;;;;;16.97;10.30;;;19.20;99.90;;;;;;5035461;28;20183;-80
2022/10/11 12:23:51;;;;;;;13.50;10.83;;;19.00;99.90;;;;;;5031257;28;20245;-79
2022/10/11 12:26:37;;;;;;;14.23;10.80;;;18.80;99.90;;;;;;5034168;28;20187;-79
2022/10/11 12:29:21;;;;;;;15.40;12.57;;;18.70;99.90;;;;;;5037803;28;20183;-79
2022/10/11 12:31:48;;;;;;;13.33;11.70;;;18.60;99.90;;;;;;5042381;28;20218;-80
2022/10/11 12:34:17;;;;;;;20.53;11.73;;;18.40;99.90;;;;;;5033743;28;20198;-82
2022/10/11 12:36:49;;;;;;;11.30;9.70;;;18.30;99.90;;;;;;5035364;28;20183;-81
2022/10/11 12:39:18;;;;;;;12.87;9.60;;;18.20;99.90;;;;;;5049029;28;20191;-81
2022/10/11 12:41:47;;;;;;;12.00;9.17;;;18.10;99.90;;;;;;5024697;28;20667;-80
2022/10/11 12:44:25;;;;;;;15.40;10.23;;;18.10;99.90;;;;;;5034265;28;20210;-79
2022/10/11 12:46:53;;;;;;;13.40;11.10;;;18.10;99.90;;;;;;5033703;28;20320;-79
2022/10/11 12:49:49;;;;;;;17.73;10.23;;;17.90;99.90;;;;;;5036814;28;20179;-79